sensor_id;sensor_type;location;lat;lon;timestamp;P1;durP1;ratioP1;P2;durP2;ratioP2
69621;SDS011;56841;55.964;37.674;2024-01-06T00:01:52;7.82;;;2.83;;
69621;SDS011;56841;55.964;37.674;2024-01-06T00:04:18;8.30;;;3.08;;
69621;SDS011;56841;55.964;37.674;2024-01-06T00:06:44;7.07;;;2.85;;
69621;SDS011;56841;55.964;37.674;2024-01-06T00:09:10;5.60;;;2.75;;
69621;SDS011;56841;55.964;37.674;2024-01-06T00:11:36;12.10;;;3.75;;
69621;SDS011;56841;55.964;37.674;2024-01-06T00:14:01;10.20;;;3.70;;
69621;SDS011;56841;55.964;37.674;2024-01-06T00:16:27;8.13;;;2.58;;
69621;SDS011;56841;55.964;37.674;2024-01-06T00:18:53;5.70;;;2.63;;
69621;SDS011;56841;55.964;37.674;2024-01-06T00:21:19;10.20;;;3.30;;
69621;SDS011;56841;55.964;37.674;2024-01-06T00:23:45;7.10;;;2.42;;
69621;SDS011;56841;55.964;37.674;2024-01-06T00:26:11;8.48;;;3.05;;
69621;SDS011;56841;55.964;37.674;2024-01-06T00:28:38;10.38;;;3.40;;
69621;SDS011;56841;55.964;37.674;2024-01-06T00:31:04;9.80;;;3.92;;
69621;SDS011;56841;55.964;37.674;2024-01-06T00:33:32;14.52;;;4.68;;
69621;SDS011;56841;55.964;37.674;2024-01-06T00:35:57;8.65;;;2.67;;
69621;SDS011;56841;55.964;37.674;2024-01-06T00:38:23;9.65;;;3.55;;
69621;SDS011;56841;55.964;37.674;2024-01-06T00:40:49;10.10;;;4.07;;
69621;SDS011;56841;55.964;37.674;2024-01-06T00:43:15;9.45;;;3.80;;
69621;SDS011;56841;55.964;37.674;2024-01-06T00:45:41;8.23;;;3.58;;
69621;SDS011;56841;55.964;37.674;2024-01-06T00:48:06;8.82;;;3.10;;
69621;SDS011;56841;55.964;37.674;2024-01-06T00:50:32;9.50;;;3.65;;
69621;SDS011;56841;55.964;37.674;2024-01-06T00:52:58;12.15;;;4.00;;
69621;SDS011;56841;55.964;37.674;2024-01-06T00:55:24;8.95;;;3.40;;
69621;SDS011;56841;55.964;37.674;2024-01-06T00:57:49;12.25;;;3.47;;
69621;SDS011;56841;55.964;37.674;2024-01-06T01:00:15;8.73;;;3.65;;
69621;SDS011;56841;55.964;37.674;2024-01-06T01:02:41;8.60;;;4.03;;
69621;SDS011;56841;55.964;37.674;2024-01-06T01:05:07;7.28;;;2.97;;
69621;SDS011;56841;55.964;37.674;2024-01-06T01:07:36;10.27;;;3.80;;
69621;SDS011;56841;55.964;37.674;2024-01-06T01:10:02;10.05;;;3.78;;
69621;SDS011;56841;55.964;37.674;2024-01-06T01:12:28;9.15;;;3.10;;
69621;SDS011;56841;55.964;37.674;2024-01-06T01:14:54;8.05;;;2.58;;
69621;SDS011;56841;55.964;37.674;2024-01-06T01:17:20;10.70;;;3.53;;
69621;SDS011;56841;55.964;37.674;2024-01-06T01:19:46;7.38;;;2.70;;
69621;SDS011;56841;55.964;37.674;2024-01-06T01:22:12;10.60;;;3.38;;
69621;SDS011;56841;55.964;37.674;2024-01-06T01:24:38;9.82;;;3.38;;
69621;SDS011;56841;55.964;37.674;2024-01-06T01:27:04;12.07;;;2.83;;
69621;SDS011;56841;55.964;37.674;2024-01-06T01:29:30;13.65;;;3.55;;
69621;SDS011;56841;55.964;37.674;2024-01-06T01:31:56;9.93;;;3.50;;
69621;SDS011;56841;55.964;37.674;2024-01-06T01:34:21;9.20;;;3.17;;
69621;SDS011;56841;55.964;37.674;2024-01-06T01:36:47;8.82;;;3.13;;
69621;SDS011;56841;55.964;37.674;2024-01-06T01:39:13;10.05;;;3.42;;
69621;SDS011;56841;55.964;37.674;2024-01-06T01:41:39;13.90;;;4.03;;
69621;SDS011;56841;55.964;37.674;2024-01-06T01:44:06;12.90;;;3.28;;
69621;SDS011;56841;55.964;37.674;2024-01-06T01:46:32;11.35;;;3.30;;
69621;SDS011;56841;55.964;37.674;2024-01-06T01:48:59;15.35;;;4.65;;
69621;SDS011;56841;55.964;37.674;2024-01-06T01:51:27;11.23;;;3.25;;
69621;SDS011;56841;55.964;37.674;2024-01-06T01:53:55;10.60;;;3.25;;
69621;SDS011;56841;55.964;37.674;2024-01-06T01:56:23;12.52;;;3.90;;
69621;SDS011;56841;55.964;37.674;2024-01-06T01:58:50;14.25;;;4.38;;
69621;SDS011;56841;55.964;37.674;2024-01-06T02:01:16;9.43;;;4.13;;
69621;SDS011;56841;55.964;37.674;2024-01-06T02:03:42;15.00;;;4.07;;
69621;SDS011;56841;55.964;37.674;2024-01-06T02:06:09;13.45;;;4.45;;
69621;SDS011;56841;55.964;37.674;2024-01-06T02:08:35;9.07;;;3.45;;
69621;SDS011;56841;55.964;37.674;2024-01-06T02:11:01;10.35;;;3.67;;
69621;SDS011;56841;55.964;37.674;2024-01-06T02:13:35;12.18;;;4.15;;
69621;SDS011;56841;55.964;37.674;2024-01-06T02:16:05;12.05;;;3.72;;
69621;SDS011;56841;55.964;37.674;2024-01-06T02:18:31;10.30;;;4.22;;
69621;SDS011;56841;55.964;37.674;2024-01-06T02:20:58;13.20;;;4.20;;
69621;SDS011;56841;55.964;37.674;2024-01-06T02:23:29;11.35;;;3.83;;
69621;SDS011;56841;55.964;37.674;2024-01-06T02:25:55;9.82;;;4.25;;
69621;SDS011;56841;55.964;37.674;2024-01-06T02:28:21;13.73;;;3.78;;
69621;SDS011;56841;55.964;37.674;2024-01-06T02:30:48;11.25;;;3.42;;
69621;SDS011;56841;55.964;37.674;2024-01-06T02:33:14;16.40;;;4.15;;
69621;SDS011;56841;55.964;37.674;2024-01-06T02:35:40;12.15;;;4.10;;
69621;SDS011;56841;55.964;37.674;2024-01-06T02:38:06;11.50;;;3.28;;
69621;SDS011;56841;55.964;37.674;2024-01-06T02:40:33;11.20;;;4.18;;
69621;SDS011;56841;55.964;37.674;2024-01-06T02:42:59;8.80;;;3.30;;
69621;SDS011;56841;55.964;37.674;2024-01-06T02:45:25;10.73;;;3.95;;
69621;SDS011;56841;55.964;37.674;2024-01-06T02:47:51;11.98;;;3.92;;
69621;SDS011;56841;55.964;37.674;2024-01-06T02:50:17;12.73;;;4.00;;
69621;SDS011;56841;55.964;37.674;2024-01-06T02:52:44;12.75;;;3.78;;
69621;SDS011;56841;55.964;37.674;2024-01-06T02:55:11;8.95;;;2.92;;
69621;SDS011;56841;55.964;37.674;2024-01-06T02:57:37;13.90;;;4.85;;
69621;SDS011;56841;55.964;37.674;2024-01-06T03:02:29;7.50;;;3.13;;
69621;SDS011;56841;55.964;37.674;2024-01-06T03:04:55;11.98;;;4.20;;
69621;SDS011;56841;55.964;37.674;2024-01-06T03:07:22;15.55;;;4.43;;
69621;SDS011;56841;55.964;37.674;2024-01-06T03:09:48;11.27;;;3.60;;
69621;SDS011;56841;55.964;37.674;2024-01-06T03:12:14;14.43;;;4.53;;
69621;SDS011;56841;55.964;37.674;2024-01-06T03:14:39;14.52;;;4.50;;
69621;SDS011;56841;55.964;37.674;2024-01-06T03:17:06;13.43;;;4.30;;
69621;SDS011;56841;55.964;37.674;2024-01-06T03:19:32;14.90;;;4.78;;
69621;SDS011;56841;55.964;37.674;2024-01-06T03:21:57;18.58;;;4.63;;
69621;SDS011;56841;55.964;37.674;2024-01-06T03:24:24;12.60;;;4.03;;
69621;SDS011;56841;55.964;37.674;2024-01-06T03:26:51;11.57;;;4.57;;
69621;SDS011;56841;55.964;37.674;2024-01-06T03:29:17;15.57;;;4.35;;
69621;SDS011;56841;55.964;37.674;2024-01-06T03:31:43;14.65;;;4.72;;
69621;SDS011;56841;55.964;37.674;2024-01-06T03:34:10;10.75;;;4.22;;
69621;SDS011;56841;55.964;37.674;2024-01-06T03:36:37;11.23;;;4.13;;
69621;SDS011;56841;55.964;37.674;2024-01-06T03:39:06;10.32;;;4.00;;
69621;SDS011;56841;55.964;37.674;2024-01-06T03:41:33;11.80;;;4.10;;
69621;SDS011;56841;55.964;37.674;2024-01-06T03:43:59;14.00;;;4.13;;
69621;SDS011;56841;55.964;37.674;2024-01-06T03:46:24;15.68;;;4.30;;
69621;SDS011;56841;55.964;37.674;2024-01-06T03:48:51;14.55;;;4.40;;
69621;SDS011;56841;55.964;37.674;2024-01-06T03:51:16;16.05;;;4.70;;
69621;SDS011;56841;55.964;37.674;2024-01-06T03:53:42;14.52;;;4.25;;
69621;SDS011;56841;55.964;37.674;2024-01-06T03:56:08;8.50;;;2.67;;
69621;SDS011;56841;55.964;37.674;2024-01-06T03:58:34;11.77;;;3.85;;
69621;SDS011;56841;55.964;37.674;2024-01-06T04:01:00;11.95;;;4.35;;
69621;SDS011;56841;55.964;37.674;2024-01-06T04:03:26;9.52;;;3.08;;
69621;SDS011;56841;55.964;37.674;2024-01-06T04:05:52;9.95;;;3.13;;
69621;SDS011;56841;55.964;37.674;2024-01-06T04:08:18;15.35;;;4.43;;
69621;SDS011;56841;55.964;37.674;2024-01-06T04:10:44;14.18;;;4.22;;
69621;SDS011;56841;55.964;37.674;2024-01-06T04:13:11;10.75;;;3.95;;
69621;SDS011;56841;55.964;37.674;2024-01-06T04:18:04;8.20;;;2.92;;
69621;SDS011;56841;55.964;37.674;2024-01-06T04:20:30;12.43;;;3.33;;
69621;SDS011;56841;55.964;37.674;2024-01-06T04:22:57;10.63;;;4.30;;
69621;SDS011;56841;55.964;37.674;2024-01-06T04:27:49;6.80;;;2.72;;
69621;SDS011;56841;55.964;37.674;2024-01-06T04:30:16;9.95;;;3.83;;
69621;SDS011;56841;55.964;37.674;2024-01-06T04:32:42;10.88;;;3.50;;
69621;SDS011;56841;55.964;37.674;2024-01-06T04:35:09;13.65;;;5.00;;
69621;SDS011;56841;55.964;37.674;2024-01-06T04:37:36;10.70;;;3.60;;
69621;SDS011;56841;55.964;37.674;2024-01-06T04:40:02;9.80;;;3.95;;
69621;SDS011;56841;55.964;37.674;2024-01-06T04:42:29;15.35;;;4.53;;
69621;SDS011;56841;55.964;37.674;2024-01-06T04:44:55;12.68;;;3.53;;
69621;SDS011;56841;55.964;37.674;2024-01-06T04:47:21;11.90;;;3.70;;
69621;SDS011;56841;55.964;37.674;2024-01-06T04:49:47;12.15;;;4.45;;
69621;SDS011;56841;55.964;37.674;2024-01-06T04:52:13;15.40;;;4.70;;
69621;SDS011;56841;55.964;37.674;2024-01-06T04:54:38;8.50;;;3.20;;
69621;SDS011;56841;55.964;37.674;2024-01-06T04:57:04;10.82;;;3.50;;
69621;SDS011;56841;55.964;37.674;2024-01-06T04:59:30;10.43;;;3.92;;
69621;SDS011;56841;55.964;37.674;2024-01-06T05:01:57;13.38;;;4.40;;
69621;SDS011;56841;55.964;37.674;2024-01-06T05:04:23;13.38;;;4.95;;
69621;SDS011;56841;55.964;37.674;2024-01-06T05:06:51;9.02;;;3.75;;
69621;SDS011;56841;55.964;37.674;2024-01-06T05:09:17;8.38;;;2.40;;
69621;SDS011;56841;55.964;37.674;2024-01-06T05:11:43;13.13;;;4.28;;
69621;SDS011;56841;55.964;37.674;2024-01-06T05:16:36;13.35;;;3.92;;
69621;SDS011;56841;55.964;37.674;2024-01-06T05:19:02;6.65;;;3.42;;
69621;SDS011;56841;55.964;37.674;2024-01-06T05:21:28;10.77;;;2.63;;
69621;SDS011;56841;55.964;37.674;2024-01-06T05:23:55;6.45;;;2.80;;
69621;SDS011;56841;55.964;37.674;2024-01-06T05:26:21;14.52;;;3.60;;
69621;SDS011;56841;55.964;37.674;2024-01-06T05:28:47;11.70;;;4.05;;
69621;SDS011;56841;55.964;37.674;2024-01-06T05:31:13;13.32;;;4.28;;
69621;SDS011;56841;55.964;37.674;2024-01-06T05:33:39;15.00;;;4.43;;
69621;SDS011;56841;55.964;37.674;2024-01-06T05:36:05;10.23;;;4.50;;
69621;SDS011;56841;55.964;37.674;2024-01-06T05:38:31;13.10;;;3.85;;
69621;SDS011;56841;55.964;37.674;2024-01-06T05:40:57;15.60;;;4.57;;
69621;SDS011;56841;55.964;37.674;2024-01-06T05:43:23;13.27;;;4.68;;
69621;SDS011;56841;55.964;37.674;2024-01-06T05:45:50;9.40;;;3.88;;
69621;SDS011;56841;55.964;37.674;2024-01-06T05:48:16;10.63;;;3.85;;
69621;SDS011;56841;55.964;37.674;2024-01-06T05:50:42;13.07;;;4.07;;
69621;SDS011;56841;55.964;37.674;2024-01-06T05:53:08;12.18;;;3.33;;
69621;SDS011;56841;55.964;37.674;2024-01-06T05:55:36;14.30;;;4.60;;
69621;SDS011;56841;55.964;37.674;2024-01-06T05:58:02;13.20;;;4.55;;
69621;SDS011;56841;55.964;37.674;2024-01-06T06:00:28;10.65;;;4.15;;
69621;SDS011;56841;55.964;37.674;2024-01-06T06:02:57;11.50;;;3.78;;
69621;SDS011;56841;55.964;37.674;2024-01-06T06:05:25;11.25;;;4.15;;
69621;SDS011;56841;55.964;37.674;2024-01-06T06:07:51;19.75;;;4.60;;
69621;SDS011;56841;55.964;37.674;2024-01-06T06:10:17;10.30;;;3.92;;
69621;SDS011;56841;55.964;37.674;2024-01-06T06:12:46;7.68;;;3.17;;
69621;SDS011;56841;55.964;37.674;2024-01-06T06:15:12;10.65;;;3.63;;
69621;SDS011;56841;55.964;37.674;2024-01-06T06:17:38;13.55;;;4.88;;
69621;SDS011;56841;55.964;37.674;2024-01-06T06:20:05;19.38;;;4.70;;
69621;SDS011;56841;55.964;37.674;2024-01-06T06:22:34;13.32;;;3.75;;
69621;SDS011;56841;55.964;37.674;2024-01-06T06:25:00;20.13;;;5.93;;
69621;SDS011;56841;55.964;37.674;2024-01-06T06:27:26;15.57;;;4.80;;
69621;SDS011;56841;55.964;37.674;2024-01-06T06:29:53;17.55;;;4.97;;
69621;SDS011;56841;55.964;37.674;2024-01-06T06:32:19;16.90;;;5.68;;
69621;SDS011;56841;55.964;37.674;2024-01-06T06:34:45;13.48;;;5.18;;
69621;SDS011;56841;55.964;37.674;2024-01-06T06:37:11;13.07;;;4.82;;
69621;SDS011;56841;55.964;37.674;2024-01-06T06:39:37;17.63;;;5.32;;
69621;SDS011;56841;55.964;37.674;2024-01-06T06:42:03;17.63;;;6.03;;
69621;SDS011;56841;55.964;37.674;2024-01-06T06:44:29;14.70;;;4.65;;
69621;SDS011;56841;55.964;37.674;2024-01-06T06:46:55;13.23;;;5.00;;
69621;SDS011;56841;55.964;37.674;2024-01-06T06:49:21;13.07;;;4.80;;
69621;SDS011;56841;55.964;37.674;2024-01-06T06:51:47;13.68;;;5.05;;
69621;SDS011;56841;55.964;37.674;2024-01-06T06:54:16;15.30;;;4.97;;
69621;SDS011;56841;55.964;37.674;2024-01-06T06:56:42;15.32;;;5.20;;
69621;SDS011;56841;55.964;37.674;2024-01-06T06:59:08;13.45;;;4.60;;
69621;SDS011;56841;55.964;37.674;2024-01-06T07:01:35;11.23;;;4.70;;
69621;SDS011;56841;55.964;37.674;2024-01-06T07:04:04;16.40;;;4.90;;
69621;SDS011;56841;55.964;37.674;2024-01-06T07:06:30;15.77;;;4.88;;
69621;SDS011;56841;55.964;37.674;2024-01-06T07:08:56;14.25;;;5.15;;
69621;SDS011;56841;55.964;37.674;2024-01-06T07:11:22;13.82;;;4.65;;
69621;SDS011;56841;55.964;37.674;2024-01-06T07:13:49;13.30;;;4.68;;
69621;SDS011;56841;55.964;37.674;2024-01-06T07:16:15;14.35;;;4.38;;
69621;SDS011;56841;55.964;37.674;2024-01-06T07:18:41;16.67;;;5.57;;
69621;SDS011;56841;55.964;37.674;2024-01-06T07:21:07;20.45;;;5.18;;
69621;SDS011;56841;55.964;37.674;2024-01-06T07:23:33;11.20;;;4.43;;
69621;SDS011;56841;55.964;37.674;2024-01-06T07:28:26;8.70;;;3.35;;
69621;SDS011;56841;55.964;37.674;2024-01-06T07:30:52;19.83;;;5.28;;
69621;SDS011;56841;55.964;37.674;2024-01-06T07:35:45;9.98;;;3.83;;
69621;SDS011;56841;55.964;37.674;2024-01-06T07:38:11;15.90;;;4.93;;
69621;SDS011;56841;55.964;37.674;2024-01-06T07:40:38;11.98;;;4.20;;
69621;SDS011;56841;55.964;37.674;2024-01-06T07:43:04;12.55;;;4.80;;
69621;SDS011;56841;55.964;37.674;2024-01-06T07:45:33;13.93;;;4.57;;
69621;SDS011;56841;55.964;37.674;2024-01-06T07:47:59;12.35;;;4.65;;
69621;SDS011;56841;55.964;37.674;2024-01-06T07:50:25;14.60;;;5.53;;
69621;SDS011;56841;55.964;37.674;2024-01-06T07:52:51;13.55;;;5.05;;
69621;SDS011;56841;55.964;37.674;2024-01-06T07:55:17;15.32;;;4.32;;
69621;SDS011;56841;55.964;37.674;2024-01-06T07:57:44;16.38;;;5.53;;
69621;SDS011;56841;55.964;37.674;2024-01-06T08:00:10;20.42;;;5.13;;
69621;SDS011;56841;55.964;37.674;2024-01-06T08:02:40;17.77;;;4.60;;
69621;SDS011;56841;55.964;37.674;2024-01-06T08:05:07;14.23;;;5.25;;
69621;SDS011;56841;55.964;37.674;2024-01-06T08:07:33;13.60;;;4.32;;
69621;SDS011;56841;55.964;37.674;2024-01-06T08:09:59;16.60;;;4.80;;
69621;SDS011;56841;55.964;37.674;2024-01-06T08:12:25;13.55;;;5.22;;
69621;SDS011;56841;55.964;37.674;2024-01-06T08:14:50;16.35;;;5.15;;
69621;SDS011;56841;55.964;37.674;2024-01-06T08:17:16;4.50;;;1.55;;
69621;SDS011;56841;55.964;37.674;2024-01-06T08:19:48;20.55;;;5.32;;
69621;SDS011;56841;55.964;37.674;2024-01-06T08:22:14;12.88;;;5.10;;
69621;SDS011;56841;55.964;37.674;2024-01-06T08:24:40;12.50;;;4.40;;
69621;SDS011;56841;55.964;37.674;2024-01-06T08:27:06;17.25;;;5.35;;
69621;SDS011;56841;55.964;37.674;2024-01-06T08:29:33;19.10;;;5.40;;
69621;SDS011;56841;55.964;37.674;2024-01-06T08:32:01;15.18;;;4.97;;
69621;SDS011;56841;55.964;37.674;2024-01-06T08:34:27;17.95;;;6.47;;
69621;SDS011;56841;55.964;37.674;2024-01-06T08:36:52;24.55;;;7.28;;
69621;SDS011;56841;55.964;37.674;2024-01-06T08:39:18;18.52;;;6.38;;
69621;SDS011;56841;55.964;37.674;2024-01-06T08:41:44;18.27;;;6.22;;
69621;SDS011;56841;55.964;37.674;2024-01-06T08:44:11;19.10;;;6.43;;
69621;SDS011;56841;55.964;37.674;2024-01-06T08:46:37;17.15;;;6.45;;
69621;SDS011;56841;55.964;37.674;2024-01-06T08:49:04;18.92;;;7.07;;
69621;SDS011;56841;55.964;37.674;2024-01-06T08:51:30;24.48;;;8.43;;
69621;SDS011;56841;55.964;37.674;2024-01-06T08:53:56;20.92;;;6.82;;
69621;SDS011;56841;55.964;37.674;2024-01-06T08:56:23;24.15;;;8.23;;
69621;SDS011;56841;55.964;37.674;2024-01-06T08:58:50;20.73;;;6.50;;
69621;SDS011;56841;55.964;37.674;2024-01-06T09:01:16;20.02;;;6.43;;
69621;SDS011;56841;55.964;37.674;2024-01-06T09:03:43;15.68;;;5.68;;
69621;SDS011;56841;55.964;37.674;2024-01-06T09:06:10;16.13;;;6.15;;
69621;SDS011;56841;55.964;37.674;2024-01-06T09:08:36;6.60;;;2.92;;
69621;SDS011;56841;55.964;37.674;2024-01-06T09:11:02;13.50;;;5.10;;
69621;SDS011;56841;55.964;37.674;2024-01-06T09:13:28;15.02;;;5.05;;
69621;SDS011;56841;55.964;37.674;2024-01-06T09:15:56;18.83;;;6.22;;
69621;SDS011;56841;55.964;37.674;2024-01-06T09:18:23;14.65;;;5.25;;
69621;SDS011;56841;55.964;37.674;2024-01-06T09:20:49;18.48;;;6.35;;
69621;SDS011;56841;55.964;37.674;2024-01-06T09:23:15;17.83;;;5.95;;
69621;SDS011;56841;55.964;37.674;2024-01-06T09:25:41;13.48;;;5.35;;
69621;SDS011;56841;55.964;37.674;2024-01-06T09:28:07;19.60;;;5.78;;
69621;SDS011;56841;55.964;37.674;2024-01-06T09:30:34;12.52;;;4.68;;
69621;SDS011;56841;55.964;37.674;2024-01-06T09:33:00;15.15;;;5.75;;
69621;SDS011;56841;55.964;37.674;2024-01-06T09:35:26;17.15;;;5.95;;
69621;SDS011;56841;55.964;37.674;2024-01-06T09:37:53;17.17;;;6.30;;
69621;SDS011;56841;55.964;37.674;2024-01-06T09:40:22;19.20;;;6.85;;
69621;SDS011;56841;55.964;37.674;2024-01-06T09:42:49;19.35;;;6.05;;
69621;SDS011;56841;55.964;37.674;2024-01-06T09:45:16;19.05;;;6.93;;
69621;SDS011;56841;55.964;37.674;2024-01-06T09:47:42;19.80;;;5.72;;
69621;SDS011;56841;55.964;37.674;2024-01-06T09:50:14;17.23;;;6.13;;
69621;SDS011;56841;55.964;37.674;2024-01-06T09:52:45;22.40;;;6.97;;
69621;SDS011;56841;55.964;37.674;2024-01-06T09:55:18;19.10;;;5.60;;
69621;SDS011;56841;55.964;37.674;2024-01-06T09:57:50;17.48;;;6.10;;
69621;SDS011;56841;55.964;37.674;2024-01-06T10:00:16;17.30;;;5.85;;
69621;SDS011;56841;55.964;37.674;2024-01-06T10:02:44;17.45;;;5.80;;
69621;SDS011;56841;55.964;37.674;2024-01-06T10:05:11;19.35;;;6.85;;
69621;SDS011;56841;55.964;37.674;2024-01-06T10:07:41;19.30;;;6.55;;
69621;SDS011;56841;55.964;37.674;2024-01-06T10:10:09;21.40;;;6.93;;
69621;SDS011;56841;55.964;37.674;2024-01-06T10:12:39;16.42;;;6.20;;
69621;SDS011;56841;55.964;37.674;2024-01-06T10:15:07;17.38;;;5.85;;
69621;SDS011;56841;55.964;37.674;2024-01-06T10:17:37;16.83;;;6.43;;
69621;SDS011;56841;55.964;37.674;2024-01-06T10:20:09;16.38;;;5.75;;
69621;SDS011;56841;55.964;37.674;2024-01-06T10:22:36;17.85;;;6.90;;
69621;SDS011;56841;55.964;37.674;2024-01-06T10:25:07;20.40;;;7.13;;
69621;SDS011;56841;55.964;37.674;2024-01-06T10:27:34;19.45;;;6.57;;
69621;SDS011;56841;55.964;37.674;2024-01-06T10:30:04;17.80;;;6.28;;
69621;SDS011;56841;55.964;37.674;2024-01-06T10:32:31;20.17;;;7.05;;
69621;SDS011;56841;55.964;37.674;2024-01-06T10:34:58;20.45;;;6.55;;
69621;SDS011;56841;55.964;37.674;2024-01-06T10:37:29;19.67;;;5.82;;
69621;SDS011;56841;55.964;37.674;2024-01-06T10:42:38;13.65;;;5.25;;
69621;SDS011;56841;55.964;37.674;2024-01-06T10:45:08;19.25;;;6.35;;
69621;SDS011;56841;55.964;37.674;2024-01-06T10:47:36;16.48;;;6.68;;
69621;SDS011;56841;55.964;37.674;2024-01-06T10:50:04;24.27;;;7.22;;
69621;SDS011;56841;55.964;37.674;2024-01-06T10:52:30;23.55;;;8.13;;
69621;SDS011;56841;55.964;37.674;2024-01-06T10:54:57;20.90;;;7.47;;
69621;SDS011;56841;55.964;37.674;2024-01-06T10:57:23;21.88;;;6.72;;
69621;SDS011;56841;55.964;37.674;2024-01-06T11:02:18;21.20;;;6.88;;
69621;SDS011;56841;55.964;37.674;2024-01-06T11:04:45;17.80;;;6.35;;
69621;SDS011;56841;55.964;37.674;2024-01-06T11:07:17;28.83;;;10.10;;
69621;SDS011;56841;55.964;37.674;2024-01-06T11:09:56;46.33;;;14.13;;
69621;SDS011;56841;55.964;37.674;2024-01-06T11:12:28;24.42;;;8.23;;
69621;SDS011;56841;55.964;37.674;2024-01-06T11:14:54;25.25;;;8.25;;
69621;SDS011;56841;55.964;37.674;2024-01-06T11:17:54;25.17;;;8.10;;
69621;SDS011;56841;55.964;37.674;2024-01-06T11:20:19;24.08;;;7.60;;
69621;SDS011;56841;55.964;37.674;2024-01-06T11:22:49;27.92;;;8.70;;
69621;SDS011;56841;55.964;37.674;2024-01-06T11:25:16;27.75;;;7.70;;
69621;SDS011;56841;55.964;37.674;2024-01-06T11:27:45;18.15;;;6.43;;
69621;SDS011;56841;55.964;37.674;2024-01-06T11:30:19;20.40;;;6.85;;
69621;SDS011;56841;55.964;37.674;2024-01-06T11:32:47;20.98;;;6.82;;
69621;SDS011;56841;55.964;37.674;2024-01-06T11:35:16;24.67;;;7.93;;
69621;SDS011;56841;55.964;37.674;2024-01-06T11:42:47;23.00;;;8.35;;
69621;SDS011;56841;55.964;37.674;2024-01-06T11:45:21;21.38;;;8.32;;
69621;SDS011;56841;55.964;37.674;2024-01-06T11:47:47;21.27;;;7.95;;
69621;SDS011;56841;55.964;37.674;2024-01-06T11:50:17;20.10;;;7.35;;
69621;SDS011;56841;55.964;37.674;2024-01-06T11:52:43;26.33;;;8.18;;
69621;SDS011;56841;55.964;37.674;2024-01-06T11:55:10;21.45;;;7.95;;
69621;SDS011;56841;55.964;37.674;2024-01-06T11:57:36;21.23;;;7.30;;
69621;SDS011;56841;55.964;37.674;2024-01-06T12:02:32;22.08;;;6.88;;
69621;SDS011;56841;55.964;37.674;2024-01-06T12:04:58;16.73;;;6.72;;
69621;SDS011;56841;55.964;37.674;2024-01-06T12:07:24;23.13;;;8.00;;
69621;SDS011;56841;55.964;37.674;2024-01-06T12:09:50;26.75;;;7.85;;
69621;SDS011;56841;55.964;37.674;2024-01-06T12:12:25;33.90;;;9.63;;
69621;SDS011;56841;55.964;37.674;2024-01-06T12:14:51;23.80;;;7.60;;
69621;SDS011;56841;55.964;37.674;2024-01-06T12:17:17;25.92;;;8.27;;
69621;SDS011;56841;55.964;37.674;2024-01-06T12:19:47;24.10;;;8.77;;
69621;SDS011;56841;55.964;37.674;2024-01-06T12:22:14;22.52;;;7.72;;
69621;SDS011;56841;55.964;37.674;2024-01-06T12:24:41;23.88;;;8.75;;
69621;SDS011;56841;55.964;37.674;2024-01-06T12:27:08;31.30;;;9.95;;
69621;SDS011;56841;55.964;37.674;2024-01-06T12:29:38;21.27;;;7.75;;
69621;SDS011;56841;55.964;37.674;2024-01-06T12:32:06;28.50;;;9.20;;
69621;SDS011;56841;55.964;37.674;2024-01-06T12:34:33;22.48;;;6.68;;
69621;SDS011;56841;55.964;37.674;2024-01-06T12:37:00;28.70;;;9.00;;
69621;SDS011;56841;55.964;37.674;2024-01-06T12:39:30;30.30;;;10.18;;
69621;SDS011;56841;55.964;37.674;2024-01-06T12:41:56;25.40;;;9.43;;
69621;SDS011;56841;55.964;37.674;2024-01-06T12:44:22;20.02;;;8.30;;
69621;SDS011;56841;55.964;37.674;2024-01-06T12:46:50;27.83;;;8.38;;
69621;SDS011;56841;55.964;37.674;2024-01-06T12:49:16;28.70;;;7.85;;
69621;SDS011;56841;55.964;37.674;2024-01-06T12:51:41;21.80;;;8.60;;
69621;SDS011;56841;55.964;37.674;2024-01-06T12:54:07;20.30;;;7.18;;
69621;SDS011;56841;55.964;37.674;2024-01-06T12:56:34;26.98;;;8.43;;
69621;SDS011;56841;55.964;37.674;2024-01-06T12:59:00;19.45;;;7.63;;
69621;SDS011;56841;55.964;37.674;2024-01-06T13:01:26;24.77;;;8.38;;
69621;SDS011;56841;55.964;37.674;2024-01-06T13:03:52;17.75;;;7.10;;
69621;SDS011;56841;55.964;37.674;2024-01-06T13:06:20;28.55;;;8.55;;
69621;SDS011;56841;55.964;37.674;2024-01-06T13:08:46;22.55;;;8.13;;
69621;SDS011;56841;55.964;37.674;2024-01-06T13:11:12;26.05;;;8.63;;
69621;SDS011;56841;55.964;37.674;2024-01-06T13:13:38;23.38;;;7.97;;
69621;SDS011;56841;55.964;37.674;2024-01-06T13:16:05;27.10;;;7.28;;
69621;SDS011;56841;55.964;37.674;2024-01-06T13:18:31;22.45;;;8.48;;
69621;SDS011;56841;55.964;37.674;2024-01-06T13:20:57;20.73;;;6.78;;
69621;SDS011;56841;55.964;37.674;2024-01-06T13:23:23;19.33;;;5.93;;
69621;SDS011;56841;55.964;37.674;2024-01-06T13:25:49;23.58;;;8.30;;
69621;SDS011;56841;55.964;37.674;2024-01-06T13:28:14;16.67;;;5.68;;
69621;SDS011;56841;55.964;37.674;2024-01-06T13:30:40;14.73;;;4.63;;
69621;SDS011;56841;55.964;37.674;2024-01-06T13:33:09;20.92;;;7.60;;
69621;SDS011;56841;55.964;37.674;2024-01-06T13:35:37;34.55;;;11.02;;
69621;SDS011;56841;55.964;37.674;2024-01-06T13:38:04;23.13;;;8.07;;
69621;SDS011;56841;55.964;37.674;2024-01-06T13:40:34;26.52;;;8.57;;
69621;SDS011;56841;55.964;37.674;2024-01-06T13:43:02;28.77;;;9.45;;
69621;SDS011;56841;55.964;37.674;2024-01-06T13:45:30;22.90;;;7.82;;
69621;SDS011;56841;55.964;37.674;2024-01-06T13:47:56;20.75;;;7.60;;
69621;SDS011;56841;55.964;37.674;2024-01-06T13:50:23;28.92;;;8.48;;
69621;SDS011;56841;55.964;37.674;2024-01-06T13:52:48;28.25;;;8.25;;
69621;SDS011;56841;55.964;37.674;2024-01-06T13:55:15;23.92;;;7.75;;
69621;SDS011;56841;55.964;37.674;2024-01-06T13:57:41;23.00;;;7.20;;
69621;SDS011;56841;55.964;37.674;2024-01-06T14:00:09;24.77;;;8.65;;
69621;SDS011;56841;55.964;37.674;2024-01-06T14:02:44;16.20;;;6.43;;
69621;SDS011;56841;55.964;37.674;2024-01-06T14:05:12;25.90;;;8.18;;
69621;SDS011;56841;55.964;37.674;2024-01-06T14:07:38;26.35;;;8.68;;
69621;SDS011;56841;55.964;37.674;2024-01-06T14:10:11;22.75;;;9.10;;
69621;SDS011;56841;55.964;37.674;2024-01-06T14:12:38;25.27;;;7.60;;
69621;SDS011;56841;55.964;37.674;2024-01-06T14:15:03;26.20;;;7.97;;
69621;SDS011;56841;55.964;37.674;2024-01-06T14:17:31;22.73;;;8.70;;
69621;SDS011;56841;55.964;37.674;2024-01-06T14:22:24;22.42;;;8.13;;
69621;SDS011;56841;55.964;37.674;2024-01-06T14:24:54;26.42;;;8.57;;
69621;SDS011;56841;55.964;37.674;2024-01-06T14:27:20;32.10;;;8.82;;
69621;SDS011;56841;55.964;37.674;2024-01-06T14:29:48;37.25;;;11.23;;
69621;SDS011;56841;55.964;37.674;2024-01-06T14:32:14;31.10;;;10.18;;
69621;SDS011;56841;55.964;37.674;2024-01-06T14:34:40;31.42;;;10.43;;
69621;SDS011;56841;55.964;37.674;2024-01-06T14:37:06;25.33;;;9.35;;
69621;SDS011;56841;55.964;37.674;2024-01-06T14:39:32;26.95;;;8.95;;
69621;SDS011;56841;55.964;37.674;2024-01-06T14:42:02;28.13;;;8.27;;
69621;SDS011;56841;55.964;37.674;2024-01-06T14:44:27;25.00;;;8.48;;
69621;SDS011;56841;55.964;37.674;2024-01-06T14:46:55;22.98;;;7.53;;
69621;SDS011;56841;55.964;37.674;2024-01-06T14:49:21;20.38;;;7.63;;
69621;SDS011;56841;55.964;37.674;2024-01-06T14:51:47;25.70;;;8.50;;